createdAt,value
2018-09-06T00:01:40.442Z,90.46
2018-09-06T00:04:10.797Z,90.97
2018-09-06T00:06:40.604Z,91.02
2018-09-06T00:09:10.904Z,90.60
2018-09-06T00:17:28.589Z,91.04
2018-09-06T00:20:02.031Z,90.70
2018-09-06T00:22:32.066Z,91.21
2018-09-06T00:25:04.029Z,91.32
2018-09-06T00:27:34.175Z,91.64
2018-09-06T00:30:03.880Z,91.84
2018-09-06T00:32:33.858Z,91.35
2018-09-06T00:35:03.546Z,91.38
2018-09-06T00:37:33.553Z,91.66
2018-09-06T00:40:03.991Z,92.01
2018-09-06T00:42:33.962Z,92.16
2018-09-06T00:45:04.332Z,92.35
2018-09-06T00:47:34.450Z,92.23
2018-09-06T00:50:04.913Z,92.59
2018-09-06T00:52:34.767Z,92.37
2018-09-06T00:55:04.779Z,92.61
2018-09-06T00:57:35.160Z,92.19
2018-09-06T01:00:05.215Z,92.29
2018-09-06T01:02:35.431Z,93.09
2018-09-06T01:05:05.036Z,92.63
2018-09-06T01:07:34.855Z,93.00
2018-09-06T01:10:05.379Z,92.79
2018-09-06T01:12:36.842Z,93.44
2018-09-06T01:15:06.970Z,93.25
2018-09-06T01:17:36.634Z,93.18
2018-09-06T01:20:06.857Z,93.07
2018-09-06T01:22:36.706Z,93.28
2018-09-06T01:25:06.489Z,92.64
2018-09-06T01:27:37.249Z,92.83
2018-09-06T01:30:07.189Z,92.95
2018-09-06T01:32:37.117Z,93.09
2018-09-06T01:35:06.936Z,93.51
2018-09-06T01:37:36.770Z,93.56
2018-09-06T01:40:06.455Z,93.84
2018-09-06T01:42:39.941Z,93.65
2018-09-06T01:45:10.128Z,92.98
2018-09-06T01:47:40.013Z,93.42
2018-09-06T01:50:10.117Z,93.38
2018-09-06T01:52:39.767Z,93.63
2018-09-06T01:55:09.581Z,93.78
2018-09-06T01:57:41.740Z,93.31
2018-09-06T02:00:11.624Z,93.65
2018-09-06T02:02:41.718Z,92.70
2018-09-06T02:05:14.610Z,92.99
2018-09-06T02:07:44.272Z,93.58
2018-09-06T02:10:14.364Z,94.20
2018-09-06T02:12:44.088Z,94.97
2018-09-06T02:15:13.742Z,94.50
2018-09-06T02:17:43.773Z,94.87
2018-09-06T02:20:13.943Z,95.15
2018-09-06T02:22:43.803Z,94.39
2018-09-06T02:25:13.551Z,94.25
2018-09-06T02:27:43.110Z,94.46
2018-09-06T02:30:22.688Z,95.01
2018-09-06T02:32:52.676Z,95.65
2018-09-06T02:35:23.326Z,95.94
2018-09-06T02:37:54.933Z,95.83
2018-09-06T02:40:29.931Z,94.67
2018-09-06T02:43:00.019Z,94.78
2018-09-06T02:45:33.098Z,94.88
2018-09-06T02:48:03.025Z,94.70
2018-09-06T02:50:38.220Z,95.31
2018-09-06T02:53:07.954Z,95.60
2018-09-06T02:55:39.749Z,95.85
2018-09-06T02:58:09.658Z,95.58
2018-09-06T03:00:40.271Z,95.31
2018-09-06T03:03:09.942Z,95.63
2018-09-06T03:05:39.654Z,95.45
2018-09-06T03:08:13.808Z,95.51
2018-09-06T03:10:45.740Z,95.53
2018-09-06T03:16:03.762Z,95.12
2018-09-06T03:18:39.347Z,94.98
2018-09-06T03:21:13.002Z,95.09
2018-09-06T03:26:40.933Z,94.43
2018-09-06T03:29:13.686Z,94.66
2018-09-06T03:31:43.861Z,94.69
2018-09-06T03:34:15.360Z,94.64
2018-09-06T03:36:46.909Z,94.85
2018-09-06T03:39:17.899Z,94.63
2018-09-06T03:41:48.978Z,95.06
2018-09-06T03:44:21.260Z,94.79
2018-09-06T03:46:51.401Z,95.68
2018-09-06T03:49:27.133Z,95.23
2018-09-06T03:52:03.289Z,95.41
2018-09-06T03:54:43.714Z,95.71
2018-09-06T03:57:17.176Z,95.80
2018-09-06T03:59:47.601Z,95.52
2018-09-06T04:02:20.340Z,95.65
2018-09-06T04:04:53.077Z,96.08
2018-09-06T04:07:31.285Z,95.75
2018-09-06T04:10:01.427Z,96.17
2018-09-06T04:12:32.855Z,96.45
2018-09-06T04:15:04.378Z,96.39
2018-09-06T04:17:38.658Z,95.77
2018-09-06T04:20:09.598Z,95.84
2018-09-06T04:22:44.589Z,96.02
2018-09-06T04:25:15.520Z,95.53
2018-09-06T04:27:46.134Z,96.21
2018-09-06T04:30:18.158Z,96.22
2018-09-06T04:32:48.700Z,95.33
2018-09-06T04:35:24.923Z,94.82
2018-09-06T04:37:56.691Z,95.05
2018-09-06T04:40:27.133Z,95.06
2018-09-06T04:42:57.532Z,95.51
2018-09-06T04:45:28.661Z,95.09
2018-09-06T04:48:01.460Z,95.33
2018-09-06T04:50:43.575Z,95.63
2018-09-06T04:53:15.023Z,95.62
2018-09-06T04:55:45.644Z,95.87
2018-09-06T04:58:23.392Z,95.81
2018-09-06T05:00:54.609Z,95.80
2018-09-06T05:03:25.106Z,95.76
2018-09-06T05:05:57.444Z,95.61
2018-09-06T05:08:31.824Z,95.96
2018-09-06T05:11:02.033Z,95.50
2018-09-06T05:13:32.319Z,95.30
2018-09-06T05:16:02.266Z,95.57
2018-09-06T05:18:32.357Z,95.76
2018-09-06T05:21:02.525Z,95.52
2018-09-06T05:23:35.227Z,95.34
2018-09-06T05:26:05.348Z,95.01
2018-09-06T05:28:51.829Z,94.42
2018-09-06T05:31:22.865Z,93.99
2018-09-06T05:34:02.939Z,93.70
2018-09-06T05:36:34.359Z,93.41
2018-09-06T05:39:05.577Z,92.75
2018-09-06T05:41:38.527Z,92.53
2018-09-06T05:44:09.415Z,92.59
2018-09-06T05:46:42.141Z,92.73
2018-09-06T05:49:12.635Z,92.30
2018-09-06T05:51:42.967Z,92.63
2018-09-06T05:54:13.691Z,92.53
2018-09-06T05:56:44.901Z,92.51
2018-09-06T05:59:16.839Z,92.35
2018-09-06T06:01:48.630Z,92.39
2018-09-06T06:04:18.784Z,92.67
2018-09-06T06:06:48.595Z,92.10
2018-09-06T06:09:18.829Z,92.35
2018-09-06T06:11:53.030Z,91.44
2018-09-06T06:18:29.635Z,91.30
2018-09-06T06:24:03.171Z,90.16
2018-09-06T06:26:33.743Z,90.00
2018-09-06T06:29:04.032Z,89.98
2018-09-06T06:31:34.010Z,89.46
2018-09-06T06:34:04.064Z,88.72
2018-09-06T06:36:34.724Z,88.62
2018-09-06T06:39:16.923Z,88.78
2018-09-06T06:41:47.650Z,88.16
2018-09-06T06:44:18.304Z,87.93
2018-09-06T06:46:54.854Z,87.11
2018-09-06T06:56:00.789Z,85.37
2018-09-06T06:58:37.911Z,84.82
2018-09-06T07:01:09.359Z,84.07
2018-09-06T07:03:42.148Z,83.36
2018-09-06T07:06:13.170Z,82.59
2018-09-06T07:08:44.511Z,82.32
2018-09-06T07:11:14.711Z,80.40
2018-09-06T07:13:46.057Z,78.04
2018-09-06T07:16:16.631Z,76.64
2018-09-06T07:18:46.958Z,75.88
2018-09-06T07:21:17.479Z,74.83
2018-09-06T07:23:48.417Z,72.43
2018-09-06T07:26:19.317Z,72.60
2018-09-06T07:28:52.652Z,71.65
2018-09-06T07:31:27.308Z,70.87
2018-09-06T07:34:09.208Z,71.15
2018-09-06T07:36:41.071Z,69.65
2018-09-06T07:39:14.390Z,69.59
2018-09-06T07:41:56.539Z,67.31
2018-09-06T07:44:27.699Z,65.17
2018-09-06T07:46:58.354Z,62.89
2018-09-06T07:49:28.235Z,60.40
2018-09-06T07:51:58.372Z,57.91
2018-09-06T07:54:28.319Z,56.41
2018-09-06T07:57:02.644Z,56.04
2018-09-06T07:59:35.747Z,53.95
2018-09-06T08:02:24.252Z,54.29
2018-09-06T08:04:55.931Z,54.61
2018-09-06T08:07:26.157Z,54.60
2018-09-06T08:09:58.253Z,52.78
2018-09-06T08:12:30.525Z,51.16
2018-09-06T08:15:09.565Z,49.75
2018-09-06T08:17:41.574Z,49.83
2018-09-06T08:20:12.816Z,48.42
2018-09-06T08:22:48.939Z,48.38
2018-09-06T08:25:20.042Z,47.75
2018-09-06T08:30:26.349Z,46.88
2018-09-06T08:32:57.160Z,45.75
2018-09-06T08:35:31.889Z,44.08
2018-09-06T08:38:02.423Z,43.59
2018-09-06T08:40:33.355Z,44.51
2018-09-06T08:43:05.217Z,42.84
2018-09-06T08:45:35.689Z,42.27
2018-09-06T08:48:06.484Z,41.80
2018-09-06T08:50:36.650Z,42.40
2018-09-06T08:53:08.523Z,41.81
2018-09-06T08:55:41.348Z,41.48
2018-09-06T08:58:17.223Z,41.33
2018-09-06T09:00:55.074Z,39.94
2018-09-06T09:03:29.001Z,38.59
2018-09-06T09:06:04.630Z,38.96
2018-09-06T09:08:38.628Z,39.89
2018-09-06T09:11:10.146Z,38.41
2018-09-06T09:16:17.909Z,35.66
2018-09-06T09:18:56.704Z,36.50
2018-09-06T09:21:30.686Z,37.42
2018-09-06T09:27:06.520Z,36.57
2018-09-06T09:29:55.337Z,35.06
2018-09-06T09:32:26.139Z,36.78
2018-09-06T09:34:58.777Z,36.83
2018-09-06T09:37:30.352Z,35.98
2018-09-06T09:40:11.289Z,37.47
2018-09-06T09:53:15.307Z,37.94
2018-09-06T09:55:47.888Z,35.32
2018-09-06T09:58:18.712Z,35.15
2018-09-06T10:00:54.655Z,33.30
2018-09-06T10:03:31.323Z,34.53
2018-09-06T10:06:17.293Z,33.68
2018-09-06T10:11:29.459Z,35.18
2018-09-06T10:14:00.686Z,34.81
2018-09-06T10:16:33.155Z,35.58
2018-09-06T10:19:04.634Z,36.84
2018-09-06T10:21:37.293Z,36.41
2018-09-06T10:27:23.359Z,36.60
2018-09-06T10:29:56.387Z,38.01
2018-09-06T10:32:27.673Z,38.07
2018-09-06T10:35:33.517Z,38.62
2018-09-06T10:40:55.610Z,39.87
2018-09-06T10:43:27.485Z,41.23
2018-09-06T10:45:58.254Z,40.36
2018-09-06T10:48:29.608Z,37.91
2018-09-06T10:51:01.174Z,39.28
2018-09-06T10:53:34.992Z,40.61
2018-09-06T10:56:08.957Z,39.58
2018-09-06T10:58:45.381Z,38.72
2018-09-06T11:03:59.702Z,41.30
2018-09-06T11:06:30.560Z,41.73
2018-09-06T11:09:13.922Z,42.06
2018-09-06T11:11:53.972Z,42.87
2018-09-06T11:17:34.073Z,50.54
2018-09-06T11:20:30.148Z,54.44
2018-09-06T11:23:03.239Z,58.75
2018-09-06T11:25:35.371Z,56.08
2018-09-06T11:28:05.204Z,57.08
2018-09-06T11:30:35.956Z,58.86
2018-09-06T11:33:18.433Z,57.81
2018-09-06T11:38:46.708Z,56.76
2018-09-06T11:41:27.906Z,58.23
2018-09-06T11:44:12.279Z,60.22
2018-09-06T11:46:47.546Z,59.72
2018-09-06T11:52:14.819Z,55.75
2018-09-06T11:54:58.139Z,57.35
2018-09-06T12:06:27.201Z,55.26
2018-09-06T12:16:02.611Z,50.50
2018-09-06T12:18:39.878Z,50.76
2018-09-06T12:21:11.670Z,52.03
2018-09-06T12:23:43.237Z,53.86
2018-09-06T12:26:15.529Z,55.04
2018-09-06T12:28:47.040Z,57.75
2018-09-06T12:31:17.481Z,55.73
2018-09-06T12:33:48.803Z,54.77
2018-09-06T12:36:22.488Z,53.86
2018-09-06T12:38:56.032Z,55.46
2018-09-06T12:41:40.039Z,53.99
2018-09-06T12:44:12.170Z,49.96
2018-09-06T12:46:43.659Z,51.51
2018-09-06T12:49:14.949Z,50.69
2018-09-06T12:51:45.654Z,47.40
2018-09-06T12:54:17.725Z,48.34
2018-09-06T12:56:50.337Z,49.06
2018-09-06T12:59:23.835Z,47.13
2018-09-06T13:01:57.215Z,49.89
2018-09-06T13:04:30.787Z,51.33
2018-09-06T13:07:05.081Z,50.08
2018-09-06T13:09:36.538Z,45.20
2018-09-06T13:12:08.501Z,45.67
2018-09-06T13:14:41.896Z,43.97
2018-09-06T13:17:15.526Z,41.14
2018-09-06T13:21:28.401Z,41.07
2018-09-06T13:24:16.342Z,41.02
2018-09-06T13:26:48.406Z,38.62
2018-09-06T13:29:21.113Z,41.76
2018-09-06T13:31:56.866Z,40.85
2018-09-06T13:34:30.438Z,43.59
2018-09-06T13:37:03.528Z,42.80
2018-09-06T13:39:33.885Z,44.09
2018-09-06T13:42:07.763Z,43.71
2018-09-06T13:44:42.029Z,44.53
2018-09-06T13:47:13.518Z,41.24
2018-09-06T13:49:45.246Z,39.58
2018-09-06T13:52:20.434Z,40.23
2018-09-06T13:57:52.195Z,41.73
2018-09-06T14:00:24.968Z,38.56
2018-09-06T14:03:00.249Z,37.71
2018-09-06T14:05:33.643Z,39.40
2018-09-06T14:08:05.802Z,39.85
2018-09-06T14:10:36.579Z,39.66
2018-09-06T14:13:09.673Z,42.08
2018-09-06T14:15:40.696Z,42.66
2018-09-06T14:18:11.308Z,43.50
2018-09-06T14:20:42.224Z,44.77
2018-09-06T14:23:12.361Z,44.27
2018-09-06T14:25:47.174Z,45.60
2018-09-06T14:29:04.105Z,44.89
2018-09-06T14:31:42.568Z,46.61
2018-09-06T14:37:27.912Z,45.24
2018-09-06T14:47:39.371Z,45.60
2018-09-06T14:53:22.183Z,49.55
2018-09-06T14:55:58.494Z,50.35
2018-09-06T14:58:28.846Z,50.18
2018-09-06T15:01:04.856Z,51.02
2018-09-06T15:04:10.542Z,54.08
2018-09-06T15:06:49.513Z,59.41
2018-09-06T15:09:20.133Z,60.59
2018-09-06T15:11:49.950Z,61.80
2018-09-06T15:14:28.413Z,61.87
2018-09-06T15:17:20.751Z,65.59
2018-09-06T15:19:52.423Z,68.78
2018-09-06T15:22:22.473Z,73.42
2018-09-06T15:25:02.016Z,76.84
2018-09-06T15:27:32.243Z,79.63
2018-09-06T15:30:05.807Z,81.34
2018-09-06T15:32:37.692Z,81.97
2018-09-06T15:37:49.391Z,82.77
2018-09-06T15:40:20.683Z,83.58
2018-09-06T15:42:53.532Z,84.35
2018-09-06T15:45:34.407Z,87.23
2018-09-06T15:48:24.875Z,88.85
2018-09-06T15:51:07.629Z,91.07
2018-09-06T15:56:20.454Z,92.10
2018-09-06T15:59:03.112Z,91.36
2018-09-06T16:01:39.235Z,90.84
2018-09-06T16:17:53.157Z,95.22
2018-09-06T16:20:24.880Z,96.55
2018-09-06T16:22:56.652Z,97.16
2018-09-06T16:25:39.230Z,96.61
2018-09-06T16:28:11.246Z,96.62
2018-09-06T16:30:48.779Z,97.13
2018-09-06T16:33:19.953Z,95.71
2018-09-06T16:35:55.172Z,95.52
2018-09-06T16:38:31.171Z,96.85
2018-09-06T16:41:02.575Z,98.28
2018-09-06T16:43:41.851Z,98.82
2018-09-06T16:46:14.281Z,99.63
2018-09-06T16:48:44.763Z,99.85
2018-09-06T16:57:11.812Z,100.00
2018-09-06T16:59:53.237Z,100.00
2018-09-06T17:02:24.398Z,99.93
2018-09-06T17:05:03.073Z,99.86
2018-09-06T17:07:41.011Z,99.63
2018-09-06T17:11:01.489Z,99.63
2018-09-06T17:13:32.671Z,99.17
2018-09-06T17:16:04.315Z,99.43
2018-09-06T17:18:38.225Z,99.26
2018-09-06T17:21:14.392Z,100.00
2018-09-06T17:23:46.473Z,100.00
2018-09-06T17:26:20.145Z,100.00
2018-09-06T17:29:00.825Z,100.00
2018-09-06T17:34:26.459Z,100.00
2018-09-06T17:37:00.204Z,100.00
2018-09-06T17:39:48.798Z,100.00
2018-09-06T17:42:20.200Z,100.00
2018-09-06T17:44:54.848Z,100.00
2018-09-06T17:47:29.881Z,100.00
2018-09-06T17:50:19.204Z,100.00
2018-09-06T17:58:20.256Z,100.00
2018-09-06T18:02:10.023Z,100.00
2018-09-06T18:04:42.163Z,100.00
2018-09-06T18:07:12.246Z,100.00
2018-09-06T18:09:43.539Z,100.00
2018-09-06T18:12:27.664Z,100.00
2018-09-06T18:14:58.695Z,100.00
2018-09-06T18:17:31.600Z,100.00
2018-09-06T18:20:04.263Z,100.00
2018-09-06T18:22:36.827Z,100.00
2018-09-06T18:25:17.949Z,100.00
2018-09-06T18:27:57.626Z,100.00
2018-09-06T18:30:37.336Z,100.00
2018-09-06T18:33:08.714Z,100.00
2018-09-06T18:35:41.165Z,100.00
2018-09-06T18:38:15.171Z,100.00
2018-09-06T18:40:45.662Z,100.00
2018-09-06T18:43:19.679Z,100.00
2018-09-06T18:45:57.443Z,100.00
2018-09-06T18:48:29.955Z,100.00
2018-09-06T18:51:07.747Z,100.00
2018-09-06T18:53:39.263Z,100.00
2018-09-06T18:56:17.476Z,100.00
2018-09-06T18:58:51.153Z,100.00
2018-09-06T19:01:22.929Z,100.00
2018-09-06T19:03:54.776Z,100.00
2018-09-06T19:06:26.433Z,100.00
2018-09-06T19:11:45.915Z,100.00
2018-09-06T19:14:44.543Z,100.00
2018-09-06T19:20:18.913Z,100.00
2018-09-06T19:25:50.462Z,100.00
2018-09-06T19:31:26.163Z,100.00
2018-09-06T19:33:58.299Z,100.00
2018-09-06T19:36:29.267Z,100.00
2018-09-06T19:39:01.328Z,100.00
2018-09-06T19:41:32.449Z,100.00
2018-09-06T19:44:08.445Z,100.00
2018-09-06T19:49:41.294Z,100.00
2018-09-06T19:52:12.008Z,100.00
2018-09-06T19:54:41.969Z,100.00
2018-09-06T19:57:16.509Z,100.00
2018-09-06T19:59:50.731Z,100.00
2018-09-06T20:02:23.405Z,100.00
2018-09-06T20:04:54.248Z,100.00
2018-09-06T20:07:27.766Z,100.00
2018-09-06T20:10:02.832Z,100.00
2018-09-06T20:12:34.075Z,100.00
2018-09-06T20:15:04.905Z,100.00
2018-09-06T20:17:35.381Z,100.00
2018-09-06T20:20:09.102Z,100.00
2018-09-06T20:22:41.080Z,100.00
2018-09-06T20:25:12.304Z,100.00
2018-09-06T20:27:42.374Z,100.00
2018-09-06T20:30:14.459Z,100.00
2018-09-06T20:32:45.313Z,100.00
2018-09-06T20:35:18.447Z,100.00
2018-09-06T20:37:49.700Z,100.00
2018-09-06T20:40:23.277Z,100.00
2018-09-06T20:42:53.506Z,100.00
2018-09-06T20:45:43.764Z,100.00
2018-09-06T20:48:14.923Z,100.00
2018-09-06T20:50:45.762Z,100.00
2018-09-06T20:56:10.319Z,100.00
2018-09-06T20:58:46.187Z,100.00
2018-09-06T21:01:22.612Z,100.00
2018-09-06T21:03:59.404Z,100.00
2018-09-06T21:06:29.937Z,100.00
2018-09-06T21:09:01.256Z,100.00
2018-09-06T21:11:33.359Z,100.00
2018-09-06T21:14:07.327Z,100.00
2018-09-06T21:16:39.232Z,100.00
2018-09-06T21:27:25.239Z,100.00
2018-09-06T21:30:07.151Z,100.00
2018-09-06T21:32:40.367Z,100.00
2018-09-06T21:35:39.449Z,100.00
2018-09-06T21:38:16.133Z,100.00
2018-09-06T21:41:00.464Z,100.00
2018-09-06T21:53:38.839Z,100.00
2018-09-06T21:56:10.107Z,100.00
2018-09-06T21:58:40.032Z,100.00
2018-09-06T22:01:10.307Z,100.00
2018-09-06T22:03:46.379Z,100.00
2018-09-06T22:06:16.422Z,100.00
2018-09-06T22:08:48.805Z,100.00
2018-09-06T22:11:19.708Z,100.00
2018-09-06T22:13:49.757Z,100.00
2018-09-06T22:16:21.366Z,100.00
2018-09-06T22:18:53.335Z,100.00
2018-09-06T22:21:25.272Z,100.00
2018-09-06T22:23:55.252Z,100.00
2018-09-06T22:26:25.417Z,100.00
2018-09-06T22:28:56.786Z,100.00
2018-09-06T22:31:27.283Z,100.00
2018-09-06T22:33:58.049Z,100.00
2018-09-06T22:36:27.971Z,100.00
2018-09-06T22:38:57.798Z,99.62
2018-09-06T22:41:31.684Z,98.37
2018-09-06T22:44:01.594Z,97.81
2018-09-06T22:46:31.412Z,97.69
2018-09-06T22:49:07.376Z,97.55
2018-09-06T22:51:37.461Z,97.19
2018-09-06T22:54:09.071Z,98.14
2018-09-06T22:56:39.063Z,98.53
2018-09-06T22:59:09.796Z,98.22
2018-09-06T23:01:39.759Z,99.48
2018-09-06T23:04:09.751Z,99.46
2018-09-06T23:06:39.646Z,99.79
2018-09-06T23:09:10.110Z,100.00
2018-09-06T23:11:40.076Z,100.00
2018-09-06T23:14:09.975Z,100.00
2018-09-06T23:16:40.186Z,100.00
2018-09-06T23:19:10.007Z,100.00
2018-09-06T23:21:39.928Z,100.00
2018-09-06T23:24:09.792Z,100.00
2018-09-06T23:26:39.735Z,100.00
2018-09-06T23:29:09.618Z,100.00
2018-09-06T23:31:52.131Z,100.00
2018-09-06T23:34:22.042Z,100.00
2018-09-06T23:36:52.443Z,100.00
2018-09-06T23:39:22.330Z,100.00
2018-09-06T23:41:52.436Z,100.00
2018-09-06T23:44:23.110Z,100.00
2018-09-06T23:46:54.045Z,100.00
2018-09-06T23:49:23.930Z,100.00
2018-09-06T23:51:53.907Z,100.00
2018-09-06T23:54:24.123Z,100.00
2018-09-06T23:56:59.543Z,100.00
2018-09-06T23:59:29.484Z,100.00
